AUA55B LOWW-CYUL
Flight info
| Callsign | AUA55B |
|---|---|
| Flight time | N/A |
| Altitude | 34000 |
| Route | MEDIX2B/16 MEDIX DCT RENKA L610 STAUB/N0425F240 L610 UPALA/N0475F340 Z744 LEPSA DCT ADKUV DCT NIK L610 KOPUL Q60 OKSAW DCT BIBPE DCT ARPAK DCT FELCA DCT OFSOX DCT SLANY DCT LUNIG DCT TOBOR/M083F360 DCT 53N020W 53N030W 5230N04000W 50N050W DCT ELSIR/N0464F360 N412A MIILS DCT KEBIG ROCKT3 |
| Aircraft | B772/H-SDE1E2E3FGHIJ2J3J4J5M1RWXY/LB1D1 |
Departure
| Time | N/A |
|---|---|
| Airport | Vienna International Airport (LOWW) |
Arrival
| Time | 2026-05-07 02:47 |
|---|---|
| Airport | Montreal / Pierre Elliott Trudeau International Airport (CYUL) |
| Time | Latitude | Longitude | Altitude | Speed | Heading |
|---|---|---|---|---|---|
| 2026-05-06 22:15 | 53.10467 | -24.85950 | 36026 ft | 462 kts | 269° |
| 2026-05-06 22:15 | 53.10472 | -24.91225 | 36012 ft | 462 kts | 269° |
| 2026-05-06 22:16 | 53.10475 | -25.01941 | 36024 ft | 463 kts | 269° |
| 2026-05-06 22:16 | 53.10468 | -25.12668 | 36036 ft | 463 kts | 269° |
| 2026-05-06 22:17 | 53.10452 | -25.23410 | 36021 ft | 463 kts | 269° |
| 2026-05-06 22:17 | 53.10427 | -25.34064 | 36021 ft | 463 kts | 269° |
| 2026-05-06 22:18 | 53.10389 | -25.44770 | 36010 ft | 462 kts | 269° |
| 2026-05-06 22:18 | 53.10341 | -25.55476 | 36021 ft | 462 kts | 269° |
| 2026-05-06 22:19 | 53.10290 | -25.66164 | 36027 ft | 462 kts | 269° |
| 2026-05-06 22:19 | 53.10224 | -25.76846 | 36029 ft | 461 kts | 269° |
| 2026-05-06 22:20 | 53.10149 | -25.87549 | 36021 ft | 462 kts | 269° |
| 2026-05-06 22:20 | 53.10066 | -25.98228 | 36028 ft | 461 kts | 269° |
| 2026-05-06 22:21 | 53.09974 | -26.08853 | 36031 ft | 462 kts | 269° |
| 2026-05-06 22:21 | 53.09872 | -26.19543 | 36024 ft | 462 kts | 269° |
| 2026-05-06 22:22 | 53.09760 | -26.30238 | 36026 ft | 463 kts | 269° |
| 2026-05-06 22:22 | 53.09638 | -26.40947 | 36019 ft | 462 kts | 269° |
| 2026-05-06 22:23 | 53.09511 | -26.51672 | 36021 ft | 462 kts | 269° |
| 2026-05-06 22:23 | 53.09373 | -26.62281 | 36039 ft | 461 kts | 268° |
| 2026-05-06 22:24 | 53.09221 | -26.72962 | 36018 ft | 461 kts | 268° |
| 2026-05-06 22:24 | 53.09062 | -26.83642 | 36025 ft | 461 kts | 268° |
| 2026-05-06 22:25 | 53.08889 | -26.94311 | 36019 ft | 462 kts | 268° |
| 2026-05-06 22:25 | 53.08710 | -27.04940 | 36025 ft | 462 kts | 268° |
| 2026-05-06 22:26 | 53.08522 | -27.15632 | 36011 ft | 462 kts | 268° |
| 2026-05-06 22:26 | 53.08324 | -27.26313 | 36024 ft | 462 kts | 268° |
| 2026-05-06 22:27 | 53.08117 | -27.36999 | 36019 ft | 462 kts | 268° |
| 2026-05-06 22:27 | 53.07899 | -27.47723 | 36020 ft | 468 kts | 268° |
| 2026-05-06 22:28 | 53.07669 | -27.58547 | 36028 ft | 468 kts | 269° |
| 2026-05-06 22:28 | 53.07431 | -27.69371 | 36018 ft | 469 kts | 268° |
| 2026-05-06 22:29 | 53.07182 | -27.80144 | 36039 ft | 469 kts | 268° |
| 2026-05-06 22:29 | 53.06925 | -27.90935 | 36029 ft | 468 kts | 268° |
| 2026-05-06 22:30 | 53.06659 | -28.01776 | 36040 ft | 470 kts | 268° |
| 2026-05-06 22:30 | 53.06378 | -28.12684 | 36022 ft | 472 kts | 269° |
| 2026-05-06 22:31 | 53.06083 | -28.23604 | 36028 ft | 475 kts | 268° |
| 2026-05-06 22:31 | 53.05778 | -28.34594 | 36026 ft | 476 kts | 268° |
| 2026-05-06 22:32 | 53.05467 | -28.45633 | 36032 ft | 479 kts | 268° |
| 2026-05-06 22:32 | 53.05142 | -28.56691 | 36016 ft | 479 kts | 268° |
| 2026-05-06 22:33 | 53.04801 | -28.67761 | 36029 ft | 478 kts | 269° |
| 2026-05-06 22:33 | 53.04460 | -28.78790 | 36024 ft | 478 kts | 268° |
| 2026-05-06 22:34 | 53.04107 | -28.89766 | 36024 ft | 478 kts | 268° |
| 2026-05-06 22:34 | 53.03739 | -29.00827 | 36029 ft | 479 kts | 269° |
| 2026-05-06 22:35 | 53.03361 | -29.11890 | 36020 ft | 479 kts | 269° |
| 2026-05-06 22:35 | 53.02973 | -29.22958 | 36022 ft | 480 kts | 268° |
| 2026-05-06 22:36 | 53.02573 | -29.34021 | 36020 ft | 480 kts | 268° |
| 2026-05-06 22:36 | 53.02162 | -29.45113 | 36031 ft | 481 kts | 268° |
| 2026-05-06 22:37 | 53.01747 | -29.56142 | 36008 ft | 481 kts | 268° |
| 2026-05-06 22:37 | 53.01319 | -29.67236 | 36027 ft | 480 kts | 268° |
| 2026-05-06 22:38 | 53.00880 | -29.78309 | 36009 ft | 481 kts | 268° |
| 2026-05-06 22:38 | 53.00436 | -29.89382 | 36013 ft | 481 kts | 269° |
| 2026-05-06 22:39 | 52.99989 | -30.00480 | 36021 ft | 481 kts | 270° |
| 2026-05-06 22:39 | 52.99842 | -30.11571 | 36015 ft | 481 kts | 272° |
| 2026-05-06 22:40 | 52.99761 | -30.22614 | 36021 ft | 481 kts | 272° |
| 2026-05-06 22:40 | 52.99666 | -30.33731 | 36019 ft | 481 kts | 271° |
| 2026-05-06 22:41 | 52.99487 | -30.50411 | 36017 ft | 482 kts | 271° |
| 2026-05-06 22:42 | 52.99354 | -30.61491 | 36019 ft | 483 kts | 270° |
| 2026-05-06 22:42 | 52.99206 | -30.72659 | 36022 ft | 483 kts | 271° |
| 2026-05-06 22:43 | 52.99047 | -30.83817 | 36023 ft | 483 kts | 270° |
| 2026-05-06 22:43 | 52.98906 | -30.93076 | 36005 ft | 483 kts | 271° |
| 2026-05-06 22:44 | 52.98729 | -31.04236 | 36025 ft | 484 kts | 271° |
| 2026-05-06 22:44 | 52.98538 | -31.15405 | 36027 ft | 485 kts | 270° |
| 2026-05-06 22:45 | 52.98338 | -31.26553 | 36021 ft | 486 kts | 270° |
| 2026-05-06 22:45 | 52.98129 | -31.37769 | 36018 ft | 487 kts | 270° |
| 2026-05-06 22:46 | 52.97911 | -31.49011 | 36013 ft | 487 kts | 270° |
| 2026-05-06 22:46 | 52.97681 | -31.60248 | 36028 ft | 487 kts | 270° |
| 2026-05-06 22:47 | 52.97438 | -31.71505 | 36026 ft | 488 kts | 270° |
| 2026-05-06 22:47 | 52.97184 | -31.82745 | 36028 ft | 488 kts | 270° |
| 2026-05-06 22:48 | 52.96918 | -31.94012 | 36031 ft | 488 kts | 270° |
| 2026-05-06 22:48 | 52.96644 | -32.05264 | 36020 ft | 488 kts | 270° |
| 2026-05-06 22:49 | 52.96362 | -32.16440 | 36035 ft | 488 kts | 270° |
| 2026-05-06 22:49 | 52.96064 | -32.27705 | 36036 ft | 488 kts | 270° |
| 2026-05-06 22:50 | 52.95757 | -32.38990 | 36041 ft | 489 kts | 270° |
| 2026-05-06 22:50 | 52.95440 | -32.50265 | 36044 ft | 489 kts | 270° |
| 2026-05-06 22:51 | 52.95111 | -32.61529 | 36040 ft | 489 kts | 270° |
| 2026-05-06 22:51 | 52.94773 | -32.72792 | 36050 ft | 489 kts | 270° |
| 2026-05-06 22:52 | 52.94422 | -32.84066 | 36060 ft | 489 kts | 270° |
| 2026-05-06 22:52 | 52.94064 | -32.95264 | 36059 ft | 489 kts | 270° |
| 2026-05-06 22:53 | 52.93693 | -33.06536 | 36054 ft | 489 kts | 270° |
| 2026-05-06 22:53 | 52.93311 | -33.17793 | 36047 ft | 489 kts | 270° |
| 2026-05-06 22:54 | 52.92918 | -33.29050 | 36077 ft | 489 kts | 270° |
| 2026-05-06 22:54 | 52.92512 | -33.40313 | 36067 ft | 490 kts | 270° |
| 2026-05-06 22:55 | 52.92098 | -33.51533 | 36076 ft | 490 kts | 270° |
| 2026-05-06 22:55 | 52.91678 | -33.62821 | 36075 ft | 490 kts | 270° |
| 2026-05-06 22:56 | 52.91244 | -33.74101 | 36085 ft | 491 kts | 270° |
| 2026-05-06 22:56 | 52.90796 | -33.85377 | 36084 ft | 490 kts | 270° |
| 2026-05-06 22:57 | 52.90338 | -33.96655 | 36088 ft | 490 kts | 270° |
| 2026-05-06 22:57 | 52.89872 | -34.07865 | 36085 ft | 490 kts | 270° |
| 2026-05-06 22:58 | 52.89392 | -34.19158 | 36098 ft | 490 kts | 270° |
| 2026-05-06 22:58 | 52.88904 | -34.30400 | 36101 ft | 490 kts | 270° |
| 2026-05-06 22:59 | 52.88399 | -34.41667 | 36094 ft | 490 kts | 270° |
| 2026-05-06 22:59 | 52.87888 | -34.52930 | 36101 ft | 490 kts | 270° |
| 2026-05-06 23:00 | 52.87371 | -34.64120 | 36109 ft | 490 kts | 270° |
| 2026-05-06 23:00 | 52.86838 | -34.75397 | 36115 ft | 490 kts | 270° |
| 2026-05-06 23:01 | 52.86296 | -34.86648 | 36104 ft | 490 kts | 269° |
| 2026-05-06 23:01 | 52.85743 | -34.97893 | 36103 ft | 490 kts | 270° |
| 2026-05-06 23:02 | 52.85186 | -35.09066 | 36094 ft | 490 kts | 270° |
| 2026-05-06 23:02 | 52.84615 | -35.20293 | 36113 ft | 490 kts | 270° |
| 2026-05-06 23:03 | 52.84031 | -35.31530 | 36133 ft | 490 kts | 270° |
| 2026-05-06 23:03 | 52.83435 | -35.42772 | 36132 ft | 490 kts | 270° |
| 2026-05-06 23:04 | 52.82831 | -35.53942 | 36126 ft | 490 kts | 270° |
| 2026-05-06 23:04 | 52.82214 | -35.65179 | 36133 ft | 490 kts | 270° |
| 2026-05-06 23:05 | 52.81588 | -35.76389 | 36143 ft | 490 kts | 270° |
| 2026-05-06 23:05 | 52.80948 | -35.87609 | 36145 ft | 490 kts | 270° |
| 2026-05-06 23:06 | 52.80300 | -35.98851 | 36144 ft | 490 kts | 270° |
| 2026-05-06 23:06 | 52.79642 | -36.10063 | 36138 ft | 490 kts | 270° |
| 2026-05-06 23:07 | 52.78972 | -36.21247 | 36153 ft | 489 kts | 270° |
| 2026-05-06 23:07 | 52.78297 | -36.32345 | 36155 ft | 489 kts | 270° |
| 2026-05-06 23:08 | 52.77611 | -36.43525 | 36156 ft | 489 kts | 270° |
| 2026-05-06 23:08 | 52.76914 | -36.54690 | 36161 ft | 489 kts | 270° |
| 2026-05-06 23:09 | 52.76201 | -36.65851 | 36146 ft | 488 kts | 270° |
| 2026-05-06 23:09 | 52.75484 | -36.76988 | 36162 ft | 488 kts | 270° |
| 2026-05-06 23:10 | 52.74758 | -36.88126 | 36170 ft | 487 kts | 270° |
| 2026-05-06 23:10 | 52.74019 | -36.99242 | 36168 ft | 487 kts | 270° |
| 2026-05-06 23:11 | 52.73273 | -37.10289 | 36170 ft | 487 kts | 270° |
| 2026-05-06 23:11 | 52.72518 | -37.21380 | 36151 ft | 487 kts | 270° |
| 2026-05-06 23:12 | 52.71749 | -37.32483 | 36165 ft | 486 kts | 270° |
| 2026-05-06 23:12 | 52.70971 | -37.43568 | 36174 ft | 485 kts | 270° |
| 2026-05-06 23:13 | 52.70185 | -37.54602 | 36180 ft | 485 kts | 270° |
| 2026-05-06 23:13 | 52.69394 | -37.65579 | 36179 ft | 485 kts | 270° |
| 2026-05-06 23:14 | 52.68586 | -37.76625 | 36167 ft | 485 kts | 270° |
| 2026-05-06 23:14 | 52.67771 | -37.87623 | 36173 ft | 483 kts | 270° |
| 2026-05-06 23:15 | 52.66941 | -37.98634 | 36178 ft | 483 kts | 270° |
| 2026-05-06 23:15 | 52.66108 | -38.09605 | 36183 ft | 482 kts | 270° |
| 2026-05-06 23:16 | 52.65265 | -38.20574 | 36178 ft | 482 kts | 269° |
| 2026-05-06 23:16 | 52.64414 | -38.31518 | 36191 ft | 482 kts | 269° |
| 2026-05-06 23:17 | 52.63556 | -38.42401 | 36187 ft | 482 kts | 269° |
| 2026-05-06 23:17 | 52.62682 | -38.53362 | 36192 ft | 483 kts | 269° |
| 2026-05-06 23:18 | 52.61800 | -38.64328 | 36195 ft | 483 kts | 269° |
| 2026-05-06 23:18 | 52.60907 | -38.75298 | 36198 ft | 483 kts | 269° |
| 2026-05-06 23:19 | 52.60001 | -38.86210 | 36198 ft | 484 kts | 269° |
| 2026-05-06 23:19 | 52.59085 | -38.97155 | 36200 ft | 482 kts | 269° |
| 2026-05-06 23:20 | 52.58162 | -39.08079 | 36204 ft | 481 kts | 269° |
| 2026-05-06 23:20 | 52.57238 | -39.18899 | 36171 ft | 480 kts | 268° |
| 2026-05-06 23:21 | 52.56301 | -39.29749 | 36192 ft | 478 kts | 268° |
| 2026-05-06 23:21 | 52.55356 | -39.40574 | 36202 ft | 478 kts | 268° |
| 2026-05-06 23:22 | 52.54403 | -39.51372 | 36197 ft | 476 kts | 268° |
| 2026-05-06 23:22 | 52.53444 | -39.62132 | 36198 ft | 475 kts | 268° |
| 2026-05-06 23:23 | 52.52485 | -39.72796 | 36209 ft | 474 kts | 268° |
| 2026-05-06 23:23 | 52.51514 | -39.83499 | 36205 ft | 474 kts | 268° |
| 2026-05-06 23:24 | 52.50533 | -39.94218 | 36209 ft | 474 kts | 268° |
| 2026-05-06 23:24 | 52.49142 | -40.04862 | 36198 ft | 482 kts | 259° |
| 2026-05-06 23:25 | 52.47058 | -40.15226 | 36204 ft | 481 kts | 258° |
| 2026-05-06 23:25 | 52.44941 | -40.25644 | 36198 ft | 480 kts | 258° |
| 2026-05-06 23:26 | 52.42864 | -40.35977 | 36204 ft | 478 kts | 259° |
| 2026-05-06 23:26 | 52.40792 | -40.46333 | 36211 ft | 478 kts | 259° |
| 2026-05-06 23:27 | 52.38721 | -40.56659 | 36207 ft | 477 kts | 259° |
| 2026-05-06 23:27 | 52.36639 | -40.66978 | 36212 ft | 478 kts | 259° |
| 2026-05-06 23:28 | 52.34544 | -40.77307 | 36212 ft | 479 kts | 258° |
| 2026-05-06 23:28 | 52.32445 | -40.87591 | 36214 ft | 480 kts | 258° |
| 2026-05-06 23:29 | 52.30322 | -40.97942 | 36172 ft | 481 kts | 258° |
| 2026-05-06 23:29 | 52.28187 | -41.08286 | 36200 ft | 479 kts | 258° |
| 2026-05-06 23:30 | 52.26412 | -41.16849 | 36215 ft | 478 kts | 258° |
| 2026-05-06 23:30 | 52.24279 | -41.27089 | 36214 ft | 476 kts | 258° |
| 2026-05-06 23:31 | 52.22139 | -41.37319 | 36215 ft | 476 kts | 258° |
| 2026-05-06 23:31 | 52.19995 | -41.47512 | 36187 ft | 474 kts | 257° |
| 2026-05-06 23:32 | 52.17502 | -41.59300 | 36203 ft | 472 kts | 257° |
| 2026-05-06 23:32 | 52.15707 | -41.67747 | 36209 ft | 471 kts | 257° |
| 2026-05-06 23:33 | 52.13558 | -41.77810 | 36212 ft | 469 kts | 257° |
| 2026-05-06 23:33 | 52.11430 | -41.87729 | 36208 ft | 466 kts | 257° |
| 2026-05-06 23:34 | 52.09287 | -41.97667 | 36203 ft | 463 kts | 257° |
| 2026-05-06 23:34 | 52.07157 | -42.07496 | 36206 ft | 459 kts | 257° |
| 2026-05-06 23:35 | 52.05033 | -42.17250 | 36208 ft | 457 kts | 257° |
| 2026-05-06 23:35 | 52.02911 | -42.26959 | 36212 ft | 455 kts | 257° |
| 2026-05-06 23:36 | 52.00793 | -42.36603 | 36213 ft | 456 kts | 257° |
| 2026-05-06 23:36 | 51.98648 | -42.46321 | 36209 ft | 457 kts | 256° |
| 2026-05-06 23:37 | 51.96487 | -42.56077 | 36217 ft | 461 kts | 256° |
| 2026-05-06 23:37 | 51.94316 | -42.65825 | 36219 ft | 464 kts | 256° |
| 2026-05-06 23:38 | 51.92110 | -42.75677 | 36211 ft | 466 kts | 256° |
| 2026-05-06 23:38 | 51.89886 | -42.85561 | 36199 ft | 467 kts | 256° |
| 2026-05-06 23:39 | 51.87649 | -42.95445 | 36222 ft | 466 kts | 255° |
| 2026-05-06 23:39 | 51.85412 | -43.05275 | 36218 ft | 466 kts | 255° |
| 2026-05-06 23:40 | 51.83185 | -43.15046 | 36219 ft | 465 kts | 255° |
| 2026-05-06 23:40 | 51.80944 | -43.24833 | 36209 ft | 464 kts | 255° |
| 2026-05-06 23:41 | 51.78693 | -43.34600 | 36211 ft | 463 kts | 255° |
| 2026-05-06 23:41 | 51.76441 | -43.44334 | 36212 ft | 462 kts | 255° |
| 2026-05-06 23:42 | 51.74183 | -43.54051 | 36213 ft | 462 kts | 255° |
| 2026-05-06 23:42 | 51.71929 | -43.63715 | 36206 ft | 462 kts | 255° |
| 2026-05-06 23:43 | 51.69650 | -43.73438 | 36213 ft | 463 kts | 255° |
| 2026-05-06 23:43 | 51.67364 | -43.83155 | 36201 ft | 462 kts | 254° |
| 2026-05-06 23:44 | 51.65088 | -43.92773 | 36208 ft | 462 kts | 254° |
| 2026-05-06 23:44 | 51.62790 | -44.02430 | 36203 ft | 462 kts | 254° |
| 2026-05-06 23:45 | 51.60484 | -44.12087 | 36202 ft | 462 kts | 254° |
| 2026-05-06 23:45 | 51.58170 | -44.21734 | 36205 ft | 462 kts | 254° |
| 2026-05-06 23:46 | 51.55863 | -44.31314 | 36194 ft | 461 kts | 253° |
| 2026-05-06 23:46 | 51.53538 | -44.40926 | 36202 ft | 461 kts | 253° |
| 2026-05-06 23:47 | 51.51209 | -44.50512 | 36205 ft | 461 kts | 253° |
| 2026-05-06 23:47 | 51.48873 | -44.60087 | 36202 ft | 460 kts | 253° |
| 2026-05-06 23:48 | 51.46531 | -44.69641 | 36176 ft | 460 kts | 253° |
| 2026-05-06 23:48 | 51.44202 | -44.79104 | 36195 ft | 459 kts | 253° |
| 2026-05-06 23:49 | 51.41850 | -44.88620 | 36196 ft | 459 kts | 253° |
| 2026-05-06 23:49 | 51.39490 | -44.98132 | 36195 ft | 458 kts | 253° |
| 2026-05-06 23:50 | 51.37141 | -45.07571 | 36200 ft | 458 kts | 253° |
| 2026-05-06 23:50 | 51.33574 | -45.21800 | 36198 ft | 458 kts | 252° |
| 2026-05-06 23:51 | 51.31207 | -45.31190 | 36193 ft | 458 kts | 252° |
| 2026-05-06 23:51 | 51.28821 | -45.40619 | 36198 ft | 458 kts | 252° |
| 2026-05-06 23:52 | 51.26422 | -45.50043 | 36193 ft | 457 kts | 252° |
| 2026-05-06 23:52 | 51.24016 | -45.59469 | 36177 ft | 457 kts | 252° |
| 2026-05-06 23:53 | 51.21613 | -45.68852 | 36187 ft | 456 kts | 252° |
| 2026-05-06 23:53 | 51.19218 | -45.78159 | 36194 ft | 456 kts | 252° |
| 2026-05-06 23:54 | 51.16800 | -45.87512 | 36193 ft | 456 kts | 251° |
| 2026-05-06 23:54 | 51.14375 | -45.96855 | 36194 ft | 456 kts | 251° |
| 2026-05-06 23:55 | 51.11946 | -46.06183 | 36178 ft | 455 kts | 251° |
| 2026-05-06 23:55 | 51.09514 | -46.15478 | 36186 ft | 455 kts | 251° |
| 2026-05-06 23:56 | 51.07086 | -46.24724 | 36188 ft | 454 kts | 251° |
| 2026-05-06 23:56 | 51.04643 | -46.33988 | 36187 ft | 454 kts | 251° |
| 2026-05-06 23:57 | 51.02190 | -46.43251 | 36187 ft | 454 kts | 251° |
| 2026-05-06 23:57 | 50.99735 | -46.52485 | 36180 ft | 454 kts | 250° |
| 2026-05-06 23:58 | 50.97282 | -46.61676 | 36187 ft | 454 kts | 250° |
| 2026-05-06 23:58 | 50.94806 | -46.70913 | 36200 ft | 454 kts | 250° |
| 2026-05-06 23:59 | 50.92325 | -46.80134 | 36186 ft | 455 kts | 250° |
| 2026-05-06 23:59 | 50.89836 | -46.89348 | 36175 ft | 455 kts | 250° |
| 2026-05-07 00:00 | 50.87340 | -46.98549 | 36199 ft | 455 kts | 250° |
| 2026-05-07 00:00 | 50.85256 | -47.06208 | 36189 ft | 455 kts | 250° |
| 2026-05-07 00:01 | 50.82321 | -47.16950 | 36188 ft | 455 kts | 249° |
| 2026-05-07 00:01 | 50.79803 | -47.26136 | 36188 ft | 455 kts | 249° |
| 2026-05-07 00:02 | 50.77294 | -47.35249 | 36172 ft | 455 kts | 249° |
| 2026-05-07 00:02 | 50.74758 | -47.44415 | 36191 ft | 455 kts | 249° |
| 2026-05-07 00:03 | 50.72219 | -47.53556 | 36190 ft | 454 kts | 249° |
| 2026-05-07 00:03 | 50.69674 | -47.62682 | 36188 ft | 454 kts | 249° |
| 2026-05-07 00:04 | 50.67124 | -47.71794 | 36188 ft | 454 kts | 249° |
| 2026-05-07 00:04 | 50.64564 | -47.80904 | 36186 ft | 454 kts | 249° |
| 2026-05-07 00:05 | 50.61994 | -47.90002 | 36188 ft | 454 kts | 249° |
| 2026-05-07 00:05 | 50.59440 | -47.99023 | 36189 ft | 454 kts | 248° |
| 2026-05-07 00:06 | 50.56862 | -48.08097 | 36189 ft | 454 kts | 248° |
| 2026-05-07 00:06 | 50.54274 | -48.17173 | 36186 ft | 454 kts | 248° |
| 2026-05-07 00:07 | 50.51680 | -48.26233 | 36187 ft | 455 kts | 248° |
| 2026-05-07 00:07 | 50.49076 | -48.35288 | 36191 ft | 455 kts | 248° |
| 2026-05-07 00:08 | 50.46472 | -48.44303 | 36193 ft | 456 kts | 248° |
| 2026-05-07 00:08 | 50.43849 | -48.53358 | 36192 ft | 456 kts | 248° |
| 2026-05-07 00:09 | 50.41214 | -48.62421 | 36187 ft | 456 kts | 247° |
| 2026-05-07 00:09 | 50.38571 | -48.71478 | 36190 ft | 456 kts | 247° |
| 2026-05-07 00:10 | 50.35920 | -48.80530 | 36186 ft | 457 kts | 247° |
| 2026-05-07 00:10 | 50.33263 | -48.89575 | 36194 ft | 457 kts | 247° |
| 2026-05-07 00:11 | 50.30618 | -48.98538 | 36194 ft | 457 kts | 247° |
| 2026-05-07 00:11 | 50.27946 | -49.07562 | 36191 ft | 457 kts | 247° |
| 2026-05-07 00:12 | 50.25267 | -49.16563 | 36188 ft | 457 kts | 247° |
| 2026-05-07 00:12 | 50.22581 | -49.25570 | 36191 ft | 457 kts | 247° |
| 2026-05-07 00:13 | 50.19888 | -49.34559 | 36192 ft | 457 kts | 247° |
| 2026-05-07 00:13 | 50.17188 | -49.43542 | 36183 ft | 457 kts | 246° |
| 2026-05-07 00:14 | 50.14476 | -49.52528 | 36192 ft | 457 kts | 246° |
| 2026-05-07 00:14 | 50.11759 | -49.61501 | 36194 ft | 458 kts | 246° |
| 2026-05-07 00:15 | 50.09039 | -49.70441 | 36190 ft | 458 kts | 246° |
| 2026-05-07 00:15 | 50.06307 | -49.79408 | 36190 ft | 458 kts | 246° |
| 2026-05-07 00:16 | 50.03563 | -49.88382 | 36183 ft | 459 kts | 246° |
| 2026-05-07 00:16 | 50.00827 | -49.97290 | 36188 ft | 459 kts | 246° |
| 2026-05-07 00:17 | 49.98396 | -50.06443 | 36202 ft | 458 kts | 251° |
| 2026-05-07 00:17 | 49.96187 | -50.15728 | 36185 ft | 458 kts | 251° |
| 2026-05-07 00:18 | 49.94340 | -50.23444 | 36189 ft | 459 kts | 251° |
| 2026-05-07 00:18 | 49.92099 | -50.32717 | 36181 ft | 459 kts | 251° |
| 2026-05-07 00:19 | 49.89847 | -50.41987 | 36191 ft | 459 kts | 251° |
| 2026-05-07 00:19 | 49.87584 | -50.51268 | 36190 ft | 460 kts | 250° |
| 2026-05-07 00:20 | 49.85313 | -50.60536 | 36191 ft | 460 kts | 250° |
| 2026-05-07 00:20 | 49.83030 | -50.69811 | 36190 ft | 460 kts | 250° |
| 2026-05-07 00:21 | 49.80750 | -50.79031 | 36188 ft | 461 kts | 250° |
| 2026-05-07 00:21 | 49.78450 | -50.88300 | 36198 ft | 461 kts | 251° |
| 2026-05-07 00:22 | 49.76145 | -50.97569 | 36190 ft | 461 kts | 251° |
| 2026-05-07 00:22 | 49.73832 | -51.06821 | 36188 ft | 461 kts | 251° |
| 2026-05-07 00:23 | 49.71523 | -51.16010 | 36184 ft | 461 kts | 251° |
| 2026-05-07 00:23 | 49.69194 | -51.25241 | 36186 ft | 461 kts | 251° |
| 2026-05-07 00:24 | 49.66858 | -51.34463 | 36188 ft | 461 kts | 251° |
| 2026-05-07 00:24 | 49.64513 | -51.43688 | 36189 ft | 461 kts | 251° |
| 2026-05-07 00:25 | 49.62165 | -51.52887 | 36190 ft | 461 kts | 251° |
| 2026-05-07 00:25 | 49.59803 | -51.62102 | 36180 ft | 462 kts | 251° |
| 2026-05-07 00:26 | 49.57432 | -51.71311 | 36183 ft | 462 kts | 251° |
| 2026-05-07 00:26 | 49.55057 | -51.80508 | 36188 ft | 462 kts | 250° |
| 2026-05-07 00:27 | 49.52676 | -51.89708 | 36203 ft | 462 kts | 251° |
| 2026-05-07 00:27 | 49.50391 | -51.98950 | 36185 ft | 460 kts | 255° |
| 2026-05-07 00:28 | 49.49048 | -52.08445 | 36189 ft | 455 kts | 263° |
| 2026-05-07 00:28 | 49.48080 | -52.18072 | 36179 ft | 455 kts | 263° |
| 2026-05-07 00:29 | 49.47096 | -52.27677 | 36178 ft | 454 kts | 263° |
| 2026-05-07 00:30 | 49.45086 | -52.46765 | 36179 ft | 453 kts | 263° |
| 2026-05-07 00:30 | 49.44060 | -52.56335 | 36181 ft | 453 kts | 263° |
| 2026-05-07 00:31 | 49.43028 | -52.65884 | 36177 ft | 452 kts | 263° |
| 2026-05-07 00:31 | 49.41990 | -52.75404 | 36170 ft | 451 kts | 262° |
| 2026-05-07 00:32 | 49.40945 | -52.84891 | 36170 ft | 450 kts | 262° |
| 2026-05-07 00:32 | 49.39899 | -52.94349 | 36164 ft | 449 kts | 262° |
| 2026-05-07 00:33 | 49.38852 | -53.03788 | 36166 ft | 448 kts | 262° |
| 2026-05-07 00:33 | 49.37793 | -53.13227 | 36159 ft | 448 kts | 262° |
| 2026-05-07 00:34 | 49.36727 | -53.22653 | 36152 ft | 448 kts | 262° |
| 2026-05-07 00:34 | 49.35659 | -53.32021 | 36168 ft | 448 kts | 262° |
| 2026-05-07 00:35 | 49.34578 | -53.41426 | 36155 ft | 447 kts | 262° |
| 2026-05-07 00:35 | 49.33489 | -53.50823 | 36149 ft | 447 kts | 262° |
| 2026-05-07 00:36 | 49.32395 | -53.60191 | 36146 ft | 446 kts | 262° |
| 2026-05-07 00:36 | 49.31294 | -53.69554 | 36138 ft | 446 kts | 261° |
| 2026-05-07 00:37 | 49.30189 | -53.78898 | 36126 ft | 445 kts | 261° |
| 2026-05-07 00:37 | 49.29077 | -53.88242 | 36137 ft | 445 kts | 261° |
| 2026-05-07 00:38 | 49.27968 | -53.97508 | 36143 ft | 445 kts | 261° |
| 2026-05-07 00:38 | 49.26838 | -54.06857 | 36126 ft | 445 kts | 261° |
| 2026-05-07 00:39 | 49.25706 | -54.16158 | 36135 ft | 444 kts | 261° |
| 2026-05-07 00:39 | 49.24567 | -54.25441 | 36127 ft | 443 kts | 261° |
| 2026-05-07 00:40 | 49.23428 | -54.34670 | 36127 ft | 443 kts | 261° |
| 2026-05-07 00:40 | 49.22276 | -54.43932 | 36134 ft | 443 kts | 261° |
| 2026-05-07 00:41 | 49.21116 | -54.53205 | 36131 ft | 443 kts | 260° |
| 2026-05-07 00:41 | 49.19948 | -54.62467 | 36140 ft | 443 kts | 260° |
| 2026-05-07 00:42 | 49.18783 | -54.71642 | 36130 ft | 442 kts | 260° |
| 2026-05-07 00:42 | 49.17606 | -54.80854 | 36116 ft | 441 kts | 260° |
| 2026-05-07 00:43 | 49.16426 | -54.90037 | 36105 ft | 440 kts | 260° |
| 2026-05-07 00:43 | 49.15241 | -54.99192 | 36117 ft | 439 kts | 260° |
| 2026-05-07 00:44 | 49.14048 | -55.08350 | 36108 ft | 438 kts | 259° |
| 2026-05-07 00:44 | 49.12857 | -55.17423 | 36122 ft | 439 kts | 259° |
| 2026-05-07 00:45 | 49.11648 | -55.26555 | 36117 ft | 439 kts | 259° |
| 2026-05-07 00:45 | 49.10437 | -55.35676 | 36121 ft | 438 kts | 259° |
| 2026-05-07 00:46 | 49.09222 | -55.44788 | 36100 ft | 437 kts | 259° |
| 2026-05-07 00:46 | 49.07999 | -55.53877 | 36110 ft | 436 kts | 259° |
| 2026-05-07 00:47 | 49.06769 | -55.62948 | 36113 ft | 436 kts | 259° |
| 2026-05-07 00:47 | 49.05540 | -55.71952 | 36122 ft | 436 kts | 259° |
| 2026-05-07 00:48 | 49.04298 | -55.81027 | 36115 ft | 436 kts | 259° |
| 2026-05-07 00:48 | 49.03047 | -55.90081 | 36113 ft | 437 kts | 259° |
| 2026-05-07 00:49 | 49.01792 | -55.99136 | 36106 ft | 437 kts | 258° |
| 2026-05-07 00:49 | 49.00527 | -56.08183 | 36104 ft | 436 kts | 258° |
| 2026-05-07 00:50 | 48.99269 | -56.17142 | 36102 ft | 434 kts | 258° |
| 2026-05-07 00:50 | 48.97998 | -56.26127 | 36102 ft | 434 kts | 258° |
| 2026-05-07 00:51 | 48.96721 | -56.35105 | 36099 ft | 433 kts | 258° |
| 2026-05-07 00:51 | 48.95439 | -56.44072 | 36095 ft | 433 kts | 258° |
| 2026-05-07 00:52 | 48.94151 | -56.53017 | 36098 ft | 433 kts | 258° |
| 2026-05-07 00:52 | 48.92859 | -56.61956 | 36096 ft | 432 kts | 257° |
| 2026-05-07 00:53 | 48.91571 | -56.70805 | 36092 ft | 430 kts | 257° |
| 2026-05-07 00:53 | 48.90268 | -56.79684 | 36087 ft | 429 kts | 257° |
| 2026-05-07 00:54 | 48.88965 | -56.88532 | 36086 ft | 428 kts | 257° |
| 2026-05-07 00:54 | 48.87657 | -56.97381 | 36087 ft | 428 kts | 257° |
| 2026-05-07 00:55 | 48.86352 | -57.06149 | 36086 ft | 428 kts | 256° |
| 2026-05-07 00:55 | 48.85031 | -57.14959 | 36090 ft | 428 kts | 256° |
| 2026-05-07 00:56 | 48.83702 | -57.23785 | 36090 ft | 429 kts | 256° |
| 2026-05-07 00:56 | 48.82365 | -57.32614 | 36090 ft | 430 kts | 256° |
| 2026-05-07 00:57 | 48.81018 | -57.41454 | 36079 ft | 430 kts | 256° |
| 2026-05-07 00:57 | 48.79660 | -57.50314 | 36085 ft | 431 kts | 256° |
| 2026-05-07 00:58 | 48.78300 | -57.59129 | 36086 ft | 431 kts | 256° |
| 2026-05-07 00:58 | 48.76926 | -57.68000 | 36087 ft | 431 kts | 256° |
| 2026-05-07 00:59 | 48.74855 | -57.81279 | 36098 ft | 431 kts | 256° |
| 2026-05-07 01:00 | 48.73470 | -57.90108 | 36094 ft | 430 kts | 255° |
| 2026-05-07 01:00 | 48.72089 | -57.98870 | 36085 ft | 430 kts | 255° |
| 2026-05-07 01:01 | 48.70692 | -58.07665 | 36083 ft | 429 kts | 255° |
| 2026-05-07 01:01 | 48.69993 | -58.12049 | 36071 ft | 428 kts | 255° |
| 2026-05-07 01:02 | 48.67999 | -58.24493 | 36066 ft | 428 kts | 255° |
| 2026-05-07 01:02 | 48.66595 | -58.33195 | 36072 ft | 428 kts | 255° |
| 2026-05-07 01:03 | 48.65179 | -58.41940 | 36063 ft | 428 kts | 255° |
| 2026-05-07 01:03 | 48.63754 | -58.50690 | 36102 ft | 429 kts | 255° |
| 2026-05-07 01:04 | 48.62322 | -58.59436 | 36075 ft | 428 kts | 255° |
| 2026-05-07 01:04 | 48.60888 | -58.68156 | 36047 ft | 426 kts | 254° |
| 2026-05-07 01:05 | 48.59455 | -58.76821 | 36052 ft | 424 kts | 254° |
| 2026-05-07 01:05 | 48.58031 | -58.85388 | 36042 ft | 422 kts | 254° |
| 2026-05-07 01:06 | 48.56595 | -58.93974 | 36035 ft | 421 kts | 254° |
| 2026-05-07 01:06 | 48.55157 | -59.02536 | 36035 ft | 420 kts | 254° |
| 2026-05-07 01:07 | 48.53713 | -59.11084 | 36029 ft | 420 kts | 254° |
| 2026-05-07 01:07 | 48.52262 | -59.19644 | 36020 ft | 421 kts | 253° |
| 2026-05-07 01:08 | 48.50805 | -59.28195 | 36025 ft | 421 kts | 253° |
| 2026-05-07 01:08 | 48.49351 | -59.36686 | 36021 ft | 420 kts | 253° |
| 2026-05-07 01:09 | 48.47878 | -59.45253 | 36015 ft | 419 kts | 253° |
| 2026-05-07 01:09 | 48.46417 | -59.53708 | 36015 ft | 419 kts | 253° |
| 2026-05-07 01:10 | 48.44937 | -59.62213 | 36018 ft | 419 kts | 253° |
| 2026-05-07 01:10 | 48.43454 | -59.70699 | 36015 ft | 418 kts | 253° |
| 2026-05-07 01:11 | 48.41968 | -59.79168 | 36033 ft | 418 kts | 252° |
| 2026-05-07 01:11 | 48.40479 | -59.87625 | 36018 ft | 417 kts | 252° |
| 2026-05-07 01:12 | 48.38997 | -59.95987 | 36000 ft | 415 kts | 252° |
| 2026-05-07 01:12 | 48.37506 | -60.04355 | 36001 ft | 413 kts | 252° |
| 2026-05-07 01:13 | 48.36013 | -60.12704 | 36005 ft | 413 kts | 252° |
| 2026-05-07 01:13 | 48.34518 | -60.21029 | 35992 ft | 412 kts | 252° |
| 2026-05-07 01:14 | 48.33013 | -60.29366 | 35998 ft | 412 kts | 252° |
| 2026-05-07 01:14 | 48.31517 | -60.37632 | 35991 ft | 413 kts | 252° |
| 2026-05-07 01:15 | 48.30000 | -60.45951 | 35981 ft | 413 kts | 251° |
| 2026-05-07 01:15 | 48.28478 | -60.54260 | 35974 ft | 412 kts | 251° |
| 2026-05-07 01:16 | 48.26952 | -60.62563 | 35974 ft | 412 kts | 251° |
| 2026-05-07 01:16 | 48.25425 | -60.70853 | 35964 ft | 411 kts | 251° |
| 2026-05-07 01:17 | 48.23899 | -60.79092 | 35963 ft | 411 kts | 251° |
| 2026-05-07 01:17 | 48.22358 | -60.87358 | 35948 ft | 411 kts | 250° |
| 2026-05-07 01:18 | 48.20811 | -60.95623 | 35951 ft | 411 kts | 250° |
| 2026-05-07 01:18 | 48.19266 | -61.03841 | 35976 ft | 413 kts | 250° |
| 2026-05-07 01:19 | 48.17703 | -61.12126 | 35960 ft | 413 kts | 250° |
| 2026-05-07 01:19 | 48.16127 | -61.20432 | 35944 ft | 414 kts | 250° |
| 2026-05-07 01:20 | 48.14550 | -61.28720 | 35949 ft | 414 kts | 250° |
| 2026-05-07 01:20 | 48.12966 | -61.37002 | 35922 ft | 414 kts | 249° |
| 2026-05-07 01:21 | 48.11375 | -61.45278 | 35934 ft | 414 kts | 249° |
| 2026-05-07 01:21 | 48.09780 | -61.53558 | 35939 ft | 414 kts | 249° |
| 2026-05-07 01:22 | 48.08174 | -61.61853 | 35937 ft | 415 kts | 249° |
| 2026-05-07 01:22 | 48.06571 | -61.70100 | 35933 ft | 415 kts | 249° |
| 2026-05-07 01:23 | 48.04952 | -61.78378 | 35923 ft | 414 kts | 249° |
| 2026-05-07 01:23 | 48.03332 | -61.86628 | 35923 ft | 413 kts | 249° |
| 2026-05-07 01:24 | 48.01712 | -61.94855 | 35914 ft | 412 kts | 249° |
| 2026-05-07 01:24 | 48.00084 | -62.03077 | 35918 ft | 412 kts | 249° |
| 2026-05-07 01:25 | 47.98461 | -62.11240 | 35912 ft | 412 kts | 249° |
| 2026-05-07 01:25 | 47.96818 | -62.19456 | 35906 ft | 413 kts | 249° |
| 2026-05-07 01:26 | 47.95450 | -62.26283 | 35936 ft | 413 kts | 248° |
| 2026-05-07 01:26 | 47.93793 | -62.34517 | 35908 ft | 413 kts | 248° |
| 2026-05-07 01:27 | 47.92138 | -62.42728 | 35876 ft | 413 kts | 248° |
| 2026-05-07 01:27 | 47.90479 | -62.50917 | 35902 ft | 412 kts | 248° |
| 2026-05-07 01:28 | 47.88811 | -62.59099 | 35899 ft | 413 kts | 248° |
| 2026-05-07 01:28 | 47.87145 | -62.67233 | 35885 ft | 413 kts | 248° |
| 2026-05-07 01:29 | 47.85463 | -62.75411 | 35884 ft | 413 kts | 248° |
| 2026-05-07 01:29 | 47.83779 | -62.83591 | 35885 ft | 413 kts | 248° |
| 2026-05-07 01:30 | 47.82083 | -62.91789 | 35892 ft | 414 kts | 248° |
| 2026-05-07 01:30 | 47.80379 | -62.99983 | 35882 ft | 415 kts | 248° |
| 2026-05-07 01:31 | 47.78669 | -63.08179 | 35884 ft | 415 kts | 247° |
| 2026-05-07 01:31 | 47.76962 | -63.16327 | 35876 ft | 415 kts | 247° |
| 2026-05-07 01:32 | 47.75238 | -63.24517 | 35879 ft | 415 kts | 247° |
| 2026-05-07 01:32 | 47.73509 | -63.32701 | 35868 ft | 415 kts | 247° |
| 2026-05-07 01:33 | 47.71773 | -63.40879 | 35870 ft | 415 kts | 247° |
| 2026-05-07 01:33 | 47.70029 | -63.49070 | 35869 ft | 415 kts | 247° |
| 2026-05-07 01:34 | 47.68292 | -63.57194 | 35862 ft | 415 kts | 247° |
| 2026-05-07 01:34 | 47.66536 | -63.65372 | 35860 ft | 416 kts | 247° |
| 2026-05-07 01:35 | 47.64776 | -63.73539 | 35862 ft | 416 kts | 247° |
| 2026-05-07 01:35 | 47.63006 | -63.81700 | 35860 ft | 416 kts | 247° |
| 2026-05-07 01:36 | 47.61233 | -63.89858 | 35860 ft | 416 kts | 247° |
| 2026-05-07 01:36 | 47.59466 | -63.97964 | 35852 ft | 415 kts | 247° |
| 2026-05-07 01:37 | 47.57682 | -64.06117 | 35871 ft | 416 kts | 247° |
| 2026-05-07 01:37 | 47.55889 | -64.14276 | 35855 ft | 416 kts | 247° |
| 2026-05-07 01:38 | 47.54094 | -64.22416 | 35845 ft | 416 kts | 247° |
| 2026-05-07 01:38 | 47.52293 | -64.30545 | 35836 ft | 415 kts | 247° |
| 2026-05-07 01:39 | 47.50488 | -64.38662 | 35835 ft | 415 kts | 246° |
| 2026-05-07 01:39 | 47.48675 | -64.46778 | 35823 ft | 415 kts | 246° |
| 2026-05-07 01:40 | 47.46870 | -64.54831 | 35821 ft | 415 kts | 246° |
| 2026-05-07 01:40 | 47.45049 | -64.62929 | 35863 ft | 415 kts | 246° |
| 2026-05-07 01:41 | 47.43215 | -64.71048 | 35831 ft | 416 kts | 246° |
| 2026-05-07 01:41 | 47.41370 | -64.79168 | 35811 ft | 417 kts | 246° |
| 2026-05-07 01:42 | 47.39528 | -64.87276 | 35794 ft | 417 kts | 246° |
| 2026-05-07 01:42 | 47.37691 | -64.95322 | 35793 ft | 416 kts | 246° |
| 2026-05-07 01:43 | 47.35832 | -65.03431 | 35813 ft | 416 kts | 246° |
| 2026-05-07 01:43 | 47.33968 | -65.11519 | 35812 ft | 417 kts | 246° |
| 2026-05-07 01:44 | 47.32098 | -65.19619 | 35809 ft | 417 kts | 246° |
| 2026-05-07 01:44 | 47.30228 | -65.27684 | 35817 ft | 418 kts | 246° |
| 2026-05-07 01:45 | 47.28336 | -65.35812 | 35813 ft | 420 kts | 246° |
| 2026-05-07 01:45 | 47.26434 | -65.43944 | 35810 ft | 420 kts | 246° |
| 2026-05-07 01:46 | 47.24527 | -65.52085 | 35815 ft | 421 kts | 246° |
| 2026-05-07 01:46 | 47.22609 | -65.60230 | 35814 ft | 421 kts | 246° |
| 2026-05-07 01:47 | 47.20696 | -65.68330 | 35812 ft | 422 kts | 246° |
| 2026-05-07 01:47 | 47.18767 | -65.76473 | 35812 ft | 422 kts | 245° |
| 2026-05-07 01:48 | 47.16822 | -65.84636 | 35820 ft | 423 kts | 245° |
| 2026-05-07 01:48 | 47.14876 | -65.92782 | 35797 ft | 423 kts | 245° |
| 2026-05-07 01:49 | 47.12921 | -66.00940 | 35804 ft | 422 kts | 245° |
| 2026-05-07 01:49 | 47.10963 | -66.09068 | 35808 ft | 422 kts | 245° |
| 2026-05-07 01:50 | 47.09016 | -66.17131 | 35793 ft | 421 kts | 245° |
| 2026-05-07 01:50 | 47.07052 | -66.25226 | 35797 ft | 421 kts | 245° |
| 2026-05-07 01:51 | 47.05087 | -66.33316 | 35793 ft | 421 kts | 245° |
| 2026-05-07 01:51 | 47.03113 | -66.41404 | 35779 ft | 422 kts | 246° |
| 2026-05-07 01:52 | 47.01123 | -66.49518 | 35796 ft | 423 kts | 245° |
| 2026-05-07 01:52 | 46.99122 | -66.57650 | 35788 ft | 424 kts | 245° |
| 2026-05-07 01:53 | 46.97121 | -66.65755 | 35788 ft | 425 kts | 245° |
| 2026-05-07 01:53 | 46.95103 | -66.73905 | 35784 ft | 426 kts | 245° |
| 2026-05-07 01:54 | 46.93084 | -66.82045 | 35781 ft | 426 kts | 245° |
| 2026-05-07 01:54 | 46.91064 | -66.90143 | 35769 ft | 425 kts | 246° |
| 2026-05-07 01:55 | 46.89031 | -66.98278 | 35784 ft | 427 kts | 246° |
| 2026-05-07 01:55 | 46.87023 | -67.06451 | 35770 ft | 429 kts | 248° |
| 2026-05-07 01:56 | 46.85246 | -67.14775 | 35775 ft | 429 kts | 249° |
| 2026-05-07 01:56 | 46.83477 | -67.23109 | 35778 ft | 430 kts | 249° |
| 2026-05-07 01:57 | 46.81697 | -67.31445 | 35767 ft | 430 kts | 249° |
| 2026-05-07 01:57 | 46.79906 | -67.39793 | 35761 ft | 430 kts | 249° |
| 2026-05-07 01:58 | 46.78113 | -67.48108 | 35802 ft | 430 kts | 249° |
| 2026-05-07 01:58 | 46.76306 | -67.56455 | 35779 ft | 432 kts | 249° |
| 2026-05-07 01:59 | 46.74498 | -67.64760 | 35776 ft | 432 kts | 249° |
| 2026-05-07 01:59 | 46.73275 | -67.70357 | 35777 ft | 433 kts | 249° |
| 2026-05-07 02:01 | 46.67290 | -67.97603 | 35781 ft | 433 kts | 249° |
| 2026-05-07 02:01 | 46.65436 | -68.05957 | 35781 ft | 434 kts | 249° |
| 2026-05-07 02:02 | 46.63578 | -68.14306 | 35782 ft | 433 kts | 249° |
| 2026-05-07 02:02 | 46.61728 | -68.22595 | 35777 ft | 433 kts | 249° |
| 2026-05-07 02:03 | 46.59859 | -68.30912 | 35778 ft | 432 kts | 248° |
| 2026-05-07 02:03 | 46.57987 | -68.39222 | 35787 ft | 432 kts | 248° |
| 2026-05-07 02:04 | 46.56109 | -68.47521 | 35781 ft | 432 kts | 249° |
| 2026-05-07 02:04 | 46.54227 | -68.55806 | 35826 ft | 432 kts | 249° |
| 2026-05-07 02:05 | 46.52338 | -68.64103 | 35797 ft | 433 kts | 249° |
| 2026-05-07 02:05 | 46.50451 | -68.72347 | 35790 ft | 433 kts | 249° |
| 2026-05-07 02:06 | 46.48551 | -68.80629 | 35798 ft | 432 kts | 249° |
| 2026-05-07 02:06 | 46.46641 | -68.88912 | 35789 ft | 432 kts | 249° |
| 2026-05-07 02:07 | 46.44729 | -68.97173 | 35789 ft | 432 kts | 249° |
| 2026-05-07 02:07 | 46.41851 | -69.09551 | 35798 ft | 432 kts | 249° |
| 2026-05-07 02:08 | 46.39927 | -69.17788 | 35806 ft | 432 kts | 249° |
| 2026-05-07 02:08 | 46.38009 | -69.25977 | 35798 ft | 432 kts | 249° |
| 2026-05-07 02:09 | 46.36072 | -69.34205 | 35801 ft | 432 kts | 249° |
| 2026-05-07 02:09 | 46.34127 | -69.42429 | 35782 ft | 432 kts | 249° |
| 2026-05-07 02:10 | 46.32179 | -69.50648 | 35795 ft | 432 kts | 249° |
| 2026-05-07 02:10 | 46.30222 | -69.58868 | 35835 ft | 432 kts | 248° |
| 2026-05-07 02:11 | 46.28255 | -69.67092 | 35810 ft | 433 kts | 248° |
| 2026-05-07 02:11 | 46.26279 | -69.75328 | 35806 ft | 433 kts | 248° |
| 2026-05-07 02:12 | 46.24314 | -69.83499 | 35798 ft | 433 kts | 248° |
| 2026-05-07 02:12 | 46.22333 | -69.91716 | 35801 ft | 433 kts | 248° |
| 2026-05-07 02:13 | 46.20343 | -69.99931 | 35794 ft | 433 kts | 249° |
| 2026-05-07 02:13 | 46.18345 | -70.08139 | 35797 ft | 433 kts | 249° |
| 2026-05-07 02:14 | 46.16339 | -70.16353 | 35811 ft | 434 kts | 248° |
| 2026-05-07 02:14 | 46.14335 | -70.24521 | 35805 ft | 434 kts | 248° |
| 2026-05-07 02:15 | 46.12311 | -70.32738 | 35812 ft | 434 kts | 248° |
| 2026-05-07 02:15 | 46.10286 | -70.40942 | 35809 ft | 434 kts | 248° |
| 2026-05-07 02:16 | 46.08256 | -70.49137 | 35805 ft | 434 kts | 248° |
| 2026-05-07 02:16 | 46.06221 | -70.57333 | 35816 ft | 434 kts | 249° |
| 2026-05-07 02:17 | 46.04181 | -70.65525 | 35816 ft | 435 kts | 248° |
| 2026-05-07 02:17 | 46.02145 | -70.73660 | 35814 ft | 434 kts | 248° |
| 2026-05-07 02:18 | 46.00106 | -70.81779 | 35806 ft | 421 kts | 248° |
| 2026-05-07 02:18 | 45.99203 | -70.85712 | 35806 ft | 407 kts | 254° |
| 2026-05-07 02:18 | 45.98901 | -70.89701 | 35792 ft | 401 kts | 265° |
| 2026-05-07 02:19 | 45.98880 | -70.93685 | 35359 ft | 405 kts | 264° |
| 2026-05-07 02:19 | 45.98825 | -70.97723 | 34926 ft | 402 kts | 264° |
| 2026-05-07 02:19 | 45.98754 | -71.01735 | 34424 ft | 400 kts | 264° |
| 2026-05-07 02:19 | 45.98673 | -71.05734 | 33939 ft | 398 kts | 264° |
| 2026-05-07 02:20 | 45.98587 | -71.09706 | 33405 ft | 397 kts | 263° |
| 2026-05-07 02:20 | 45.98496 | -71.13665 | 32839 ft | 395 kts | 263° |
| 2026-05-07 02:20 | 45.98405 | -71.17611 | 32333 ft | 393 kts | 263° |
| 2026-05-07 02:20 | 45.98316 | -71.21522 | 31836 ft | 390 kts | 262° |
| 2026-05-07 02:21 | 45.98227 | -71.25371 | 31363 ft | 388 kts | 262° |
| 2026-05-07 02:21 | 45.98136 | -71.29238 | 30877 ft | 386 kts | 262° |
| 2026-05-07 02:21 | 45.98045 | -71.33090 | 30391 ft | 384 kts | 262° |
| 2026-05-07 02:21 | 45.97955 | -71.36913 | 29939 ft | 382 kts | 262° |
| 2026-05-07 02:22 | 45.97864 | -71.40719 | 29396 ft | 380 kts | 261° |
| 2026-05-07 02:22 | 45.97771 | -71.44513 | 28902 ft | 378 kts | 261° |
| 2026-05-07 02:22 | 45.97678 | -71.48270 | 28412 ft | 374 kts | 262° |
| 2026-05-07 02:22 | 45.97582 | -71.52008 | 27958 ft | 372 kts | 262° |
| 2026-05-07 02:23 | 45.97485 | -71.55706 | 27495 ft | 369 kts | 262° |
| 2026-05-07 02:23 | 45.97386 | -71.59377 | 27089 ft | 366 kts | 262° |
| 2026-05-07 02:23 | 45.97285 | -71.63014 | 26668 ft | 362 kts | 262° |
| 2026-05-07 02:23 | 45.97187 | -71.66585 | 26267 ft | 359 kts | 262° |
| 2026-05-07 02:24 | 45.97089 | -71.70161 | 25872 ft | 356 kts | 262° |
| 2026-05-07 02:24 | 45.96992 | -71.73690 | 25472 ft | 353 kts | 262° |
| 2026-05-07 02:24 | 45.96895 | -71.77206 | 25081 ft | 350 kts | 262° |
| 2026-05-07 02:24 | 45.96798 | -71.80686 | 24694 ft | 347 kts | 262° |
| 2026-05-07 02:25 | 45.96700 | -71.84139 | 24309 ft | 344 kts | 262° |
| 2026-05-07 02:25 | 45.96604 | -71.87563 | 23917 ft | 341 kts | 262° |
| 2026-05-07 02:25 | 45.96506 | -71.90959 | 23549 ft | 338 kts | 262° |
| 2026-05-07 02:25 | 45.96408 | -71.94320 | 23142 ft | 336 kts | 262° |
| 2026-05-07 02:26 | 45.96312 | -71.97620 | 22713 ft | 332 kts | 262° |
| 2026-05-07 02:26 | 45.96214 | -72.00921 | 22317 ft | 329 kts | 262° |
| 2026-05-07 02:26 | 45.96115 | -72.04189 | 21940 ft | 324 kts | 262° |
| 2026-05-07 02:26 | 45.96017 | -72.07408 | 21569 ft | 320 kts | 263° |
| 2026-05-07 02:27 | 45.95919 | -72.10593 | 21210 ft | 316 kts | 263° |
| 2026-05-07 02:27 | 45.95823 | -72.13737 | 20859 ft | 312 kts | 262° |
| 2026-05-07 02:27 | 45.95727 | -72.16793 | 20516 ft | 308 kts | 262° |
| 2026-05-07 02:27 | 45.95631 | -72.19853 | 20172 ft | 305 kts | 263° |
| 2026-05-07 02:28 | 45.95537 | -72.22876 | 19835 ft | 301 kts | 263° |
| 2026-05-07 02:28 | 45.95444 | -72.25868 | 19496 ft | 298 kts | 263° |
| 2026-05-07 02:28 | 45.95350 | -72.28829 | 19167 ft | 295 kts | 262° |
| 2026-05-07 02:28 | 45.95254 | -72.31762 | 18838 ft | 293 kts | 262° |
| 2026-05-07 02:29 | 45.95160 | -72.34671 | 18515 ft | 290 kts | 263° |
| 2026-05-07 02:29 | 45.95063 | -72.37565 | 18203 ft | 290 kts | 263° |
| 2026-05-07 02:29 | 45.94843 | -72.40433 | 17871 ft | 286 kts | 252° |
| 2026-05-07 02:29 | 45.94101 | -72.43067 | 17606 ft | 286 kts | 242° |
| 2026-05-07 02:30 | 45.93156 | -72.45594 | 17265 ft | 289 kts | 241° |
| 2026-05-07 02:30 | 45.92187 | -72.48134 | 16943 ft | 289 kts | 241° |
| 2026-05-07 02:30 | 45.91222 | -72.50670 | 16609 ft | 289 kts | 241° |
| 2026-05-07 02:30 | 45.90262 | -72.53209 | 16275 ft | 289 kts | 241° |
| 2026-05-07 02:31 | 45.89303 | -72.55760 | 15967 ft | 289 kts | 242° |
| 2026-05-07 02:31 | 45.88364 | -72.58267 | 15644 ft | 288 kts | 242° |
| 2026-05-07 02:31 | 45.87418 | -72.60793 | 15323 ft | 286 kts | 242° |
| 2026-05-07 02:31 | 45.86482 | -72.63291 | 15007 ft | 282 kts | 242° |
| 2026-05-07 02:32 | 45.85557 | -72.65764 | 14686 ft | 279 kts | 242° |
| 2026-05-07 02:32 | 45.84644 | -72.68213 | 14367 ft | 277 kts | 242° |
| 2026-05-07 02:32 | 45.83738 | -72.70638 | 14062 ft | 275 kts | 242° |
| 2026-05-07 02:32 | 45.82834 | -72.73047 | 13759 ft | 274 kts | 243° |
| 2026-05-07 02:33 | 45.81931 | -72.75452 | 13419 ft | 273 kts | 243° |
| 2026-05-07 02:33 | 45.81033 | -72.77841 | 13096 ft | 271 kts | 242° |
| 2026-05-07 02:33 | 45.80139 | -72.80212 | 12769 ft | 270 kts | 242° |
| 2026-05-07 02:33 | 45.79246 | -72.82575 | 12468 ft | 269 kts | 242° |
| 2026-05-07 02:34 | 45.78367 | -72.84904 | 12169 ft | 268 kts | 242° |
| 2026-05-07 02:34 | 45.77480 | -72.87252 | 11879 ft | 268 kts | 242° |
| 2026-05-07 02:34 | 45.76592 | -72.89608 | 11578 ft | 270 kts | 242° |
| 2026-05-07 02:34 | 45.75693 | -72.91993 | 11264 ft | 274 kts | 242° |
| 2026-05-07 02:35 | 45.74779 | -72.94414 | 10957 ft | 276 kts | 242° |
| 2026-05-07 02:35 | 45.74174 | -72.96012 | 10750 ft | 276 kts | 242° |
| 2026-05-07 02:35 | 45.73257 | -72.98427 | 10476 ft | 274 kts | 242° |
| 2026-05-07 02:35 | 45.72350 | -73.00815 | 10169 ft | 270 kts | 243° |
| 2026-05-07 02:36 | 45.71731 | -73.03304 | 9816 ft | 264 kts | 260° |
| 2026-05-07 02:36 | 45.71503 | -73.05897 | 9501 ft | 261 kts | 261° |
| 2026-05-07 02:36 | 45.71244 | -73.08459 | 9161 ft | 259 kts | 260° |
| 2026-05-07 02:36 | 45.70976 | -73.10990 | 8854 ft | 256 kts | 260° |
| 2026-05-07 02:37 | 45.70679 | -73.13492 | 8558 ft | 251 kts | 257° |
| 2026-05-07 02:37 | 45.70270 | -73.15831 | 8186 ft | 236 kts | 255° |
| 2026-05-07 02:37 | 45.69851 | -73.18046 | 7828 ft | 224 kts | 255° |
| 2026-05-07 02:37 | 45.69444 | -73.20199 | 7540 ft | 225 kts | 255° |
| 2026-05-07 02:38 | 45.69041 | -73.22347 | 7248 ft | 228 kts | 255° |
| 2026-05-07 02:38 | 45.68631 | -73.24549 | 6988 ft | 230 kts | 255° |
| 2026-05-07 02:38 | 45.68222 | -73.26769 | 6684 ft | 233 kts | 256° |
| 2026-05-07 02:38 | 45.67813 | -73.29001 | 6389 ft | 230 kts | 256° |
| 2026-05-07 02:39 | 45.67408 | -73.31207 | 6057 ft | 228 kts | 256° |
| 2026-05-07 02:39 | 45.67007 | -73.33388 | 5748 ft | 225 kts | 256° |
| 2026-05-07 02:39 | 45.66613 | -73.35542 | 5454 ft | 222 kts | 256° |
| 2026-05-07 02:39 | 45.66225 | -73.37664 | 5164 ft | 220 kts | 256° |
| 2026-05-07 02:40 | 45.65839 | -73.39771 | 4883 ft | 218 kts | 256° |
| 2026-05-07 02:40 | 45.65455 | -73.41868 | 4609 ft | 219 kts | 256° |
| 2026-05-07 02:40 | 45.65073 | -73.43955 | 4323 ft | 221 kts | 256° |
| 2026-05-07 02:40 | 45.64685 | -73.46071 | 4030 ft | 220 kts | 256° |
| 2026-05-07 02:41 | 45.64297 | -73.48174 | 3744 ft | 217 kts | 256° |
| 2026-05-07 02:41 | 45.63914 | -73.50250 | 3472 ft | 215 kts | 256° |
| 2026-05-07 02:41 | 45.63532 | -73.52300 | 3183 ft | 211 kts | 255° |
| 2026-05-07 02:41 | 45.62839 | -73.54085 | 3052 ft | 208 kts | 232° |
| 2026-05-07 02:42 | 45.61845 | -73.55648 | 3014 ft | 215 kts | 230° |
| 2026-05-07 02:42 | 45.60803 | -73.57164 | 3007 ft | 215 kts | 227° |
| 2026-05-07 02:42 | 45.59749 | -73.58574 | 2983 ft | 199 kts | 226° |
| 2026-05-07 02:42 | 45.58763 | -73.59873 | 2984 ft | 187 kts | 226° |
| 2026-05-07 02:43 | 45.57827 | -73.61104 | 2755 ft | 180 kts | 226° |
| 2026-05-07 02:43 | 45.56929 | -73.62285 | 2503 ft | 169 kts | 226° |
| 2026-05-07 02:43 | 45.56099 | -73.63376 | 2257 ft | 154 kts | 226° |
| 2026-05-07 02:43 | 45.55377 | -73.64326 | 2074 ft | 133 kts | 226° |
| 2026-05-07 02:44 | 45.54701 | -73.65225 | 1921 ft | 134 kts | 227° |
| 2026-05-07 02:44 | 45.54016 | -73.66129 | 1741 ft | 133 kts | 227° |
| 2026-05-07 02:44 | 45.53347 | -73.67006 | 1528 ft | 129 kts | 226° |
| 2026-05-07 02:44 | 45.52688 | -73.67878 | 1334 ft | 129 kts | 226° |
| 2026-05-07 02:45 | 45.52032 | -73.68745 | 1132 ft | 129 kts | 225° |
| 2026-05-07 02:45 | 45.51366 | -73.69610 | 962 ft | 132 kts | 224° |
| 2026-05-07 02:45 | 45.50677 | -73.70513 | 814 ft | 137 kts | 224° |
| 2026-05-07 02:45 | 45.49973 | -73.71437 | 631 ft | 138 kts | 224° |
| 2026-05-07 02:46 | 45.49274 | -73.72351 | 424 ft | 141 kts | 224° |
| 2026-05-07 02:46 | 45.48550 | -73.73302 | 242 ft | 142 kts | 224° |
| 2026-05-07 02:46 | 45.47828 | -73.74253 | 122 ft | 140 kts | 221° |
| 2026-05-07 02:46 | 45.47133 | -73.75161 | 115 ft | 127 kts | 222° |
| 2026-05-07 02:47 | 45.46618 | -73.75834 | 110 ft | 74 kts | 223° |
| 2026-05-07 02:47 | 45.46373 | -73.76156 | 109 ft | 31 kts | 223° |
| 2026-05-07 02:47 | 45.46279 | -73.76231 | 108 ft | 13 kts | 174° |
| 2026-05-07 02:47 | 45.46195 | -73.76192 | 108 ft | 13 kts | 160° |
| 2026-05-07 02:48 | 45.46110 | -73.76132 | 107 ft | 14 kts | 144° |
| 2026-05-07 02:48 | 45.46026 | -73.76066 | 109 ft | 14 kts | 168° |
| 2026-05-07 02:48 | 45.45930 | -73.76055 | 109 ft | 14 kts | 177° |
| 2026-05-07 02:48 | 45.45834 | -73.76038 | 109 ft | 14 kts | 171° |
| 2026-05-07 02:49 | 45.45750 | -73.75981 | 110 ft | 14 kts | 128° |
| 2026-05-07 02:49 | 45.45726 | -73.75848 | 110 ft | 14 kts | 97° |
| 2026-05-07 02:49 | 45.45728 | -73.75710 | 110 ft | 14 kts | 76° |
| 2026-05-07 02:49 | 45.45755 | -73.75577 | 108 ft | 14 kts | 73° |
| 2026-05-07 02:50 | 45.45762 | -73.75527 | 110 ft | 4 kts | 82° |
| 2026-05-07 02:50 | 45.45767 | -73.75469 | 108 ft | 7 kts | 85° |
| 2026-05-07 02:50 | 45.45770 | -73.75403 | 110 ft | 5 kts | 87° |
| 2026-05-07 02:50 | 45.45770 | -73.75386 | 110 ft | 0 kts | 87° |